createdAt,value
2022-10-05T00:02:36.877Z,0
2022-10-05T00:07:19.188Z,0
2022-10-05T00:12:01.526Z,0
2022-10-05T00:16:43.712Z,0
2022-10-05T00:21:26.052Z,0
2022-10-05T00:26:08.336Z,0
2022-10-05T00:30:50.564Z,0
2022-10-05T00:35:32.861Z,0
2022-10-05T00:40:15.168Z,0
2022-10-05T00:44:57.386Z,0
2022-10-05T00:49:39.728Z,0
2022-10-05T00:54:21.007Z,0
2022-10-05T00:59:03.336Z,0
2022-10-05T01:03:45.591Z,0
2022-10-05T01:08:27.846Z,0
2022-10-05T01:13:10.149Z,0
2022-10-05T01:17:52.379Z,0
2022-10-05T01:22:34.677Z,0
2022-10-05T01:27:16.983Z,0
2022-10-05T01:31:59.201Z,0
2022-10-05T01:36:41.587Z,0
2022-10-05T01:41:23.828Z,0
2022-10-05T01:46:06.130Z,0
2022-10-05T01:50:48.349Z,0
2022-10-05T01:55:29.658Z,0
2022-10-05T02:00:11.966Z,0
2022-10-05T02:04:54.185Z,0
2022-10-05T02:09:36.492Z,0
2022-10-05T02:14:18.806Z,0
2022-10-05T02:19:01.119Z,0
2022-10-05T02:23:43.334Z,0
2022-10-05T02:28:25.639Z,0
2022-10-05T02:33:07.956Z,0
2022-10-05T02:37:50.163Z,0
2022-10-05T02:42:32.475Z,0
2022-10-05T02:47:14.784Z,0
2022-10-05T02:51:57.004Z,0
2022-10-05T02:56:38.304Z,0
2022-10-05T03:01:20.619Z,0
2022-10-05T03:06:02.941Z,0
2022-10-05T03:10:45.142Z,0
2022-10-05T03:15:27.459Z,0
2022-10-05T03:20:08.768Z,0
2022-10-05T03:24:50.089Z,0
2022-10-05T03:29:31.382Z,0
2022-10-05T03:34:12.730Z,0
2022-10-05T03:38:54.910Z,0
2022-10-05T03:43:37.220Z,0
2022-10-05T03:48:19.536Z,0
2022-10-05T03:53:01.780Z,0
2022-10-05T03:57:44.054Z,0
2022-10-05T04:02:26.368Z,0
2022-10-05T04:07:08.683Z,0
2022-10-05T04:11:50.902Z,0
2022-10-05T04:16:33.215Z,0
2022-10-05T04:21:15.537Z,0
2022-10-05T04:25:57.731Z,0
2022-10-05T04:30:40.045Z,0
2022-10-05T04:35:21.357Z,0
2022-10-05T04:40:03.718Z,0
2022-10-05T04:44:45.899Z,0
2022-10-05T04:49:28.186Z,0
2022-10-05T04:54:10.493Z,0
2022-10-05T04:58:52.710Z,0
2022-10-05T05:03:35.126Z,0
2022-10-05T05:08:17.354Z,0
2022-10-05T05:12:59.554Z,0
2022-10-05T05:17:41.857Z,5
2022-10-05T05:22:24.170Z,11
2022-10-05T05:27:06.434Z,16
2022-10-05T05:31:48.692Z,22
2022-10-05T05:36:30.002Z,28
2022-10-05T05:41:12.329Z,39
2022-10-05T05:45:54.558Z,45
2022-10-05T05:50:36.883Z,56
2022-10-05T05:55:19.158Z,56
2022-10-05T06:00:01.409Z,67
2022-10-05T06:04:43.762Z,84
2022-10-05T06:09:26.010Z,90
2022-10-05T06:14:08.197Z,101
2022-10-05T06:18:50.544Z,101
2022-10-05T06:23:32.832Z,106
2022-10-05T06:28:15.232Z,112
2022-10-05T06:32:57.417Z,106
2022-10-05T06:37:39.771Z,106
2022-10-05T06:42:20.978Z,106
2022-10-05T06:47:03.205Z,106
2022-10-05T06:51:45.496Z,118
2022-10-05T06:56:27.837Z,135
2022-10-05T07:01:10.120Z,146
2022-10-05T07:05:52.335Z,163
2022-10-05T07:10:34.643Z,174
2022-10-05T07:15:17.001Z,191
2022-10-05T07:19:59.223Z,219
2022-10-05T07:24:41.479Z,236
2022-10-05T07:34:06.041Z,219
2022-10-05T07:43:30.630Z,241
2022-10-05T07:48:11.952Z,253
2022-10-05T07:52:54.177Z,258
2022-10-05T07:57:36.548Z,264
2022-10-05T08:02:18.741Z,258
2022-10-05T08:07:00.123Z,247
2022-10-05T08:11:41.297Z,258
2022-10-05T08:16:23.658Z,270
2022-10-05T08:21:04.925Z,281
2022-10-05T08:25:46.319Z,303
2022-10-05T08:30:28.541Z,320
2022-10-05T08:35:10.755Z,348
2022-10-05T08:39:53.090Z,348
2022-10-05T08:44:35.382Z,376
2022-10-05T08:49:17.617Z,399
2022-10-05T08:53:59.955Z,495
2022-10-05T08:58:42.216Z,568
2022-10-05T09:03:24.453Z,686
2022-10-05T09:08:06.771Z,489
2022-10-05T09:12:48.962Z,472
2022-10-05T09:17:31.366Z,495
2022-10-05T09:22:13.579Z,675
2022-10-05T09:26:54.948Z,511
2022-10-05T09:31:37.104Z,523
2022-10-05T09:36:19.421Z,551
2022-10-05T09:41:01.726Z,601
2022-10-05T09:45:44.067Z,1231
2022-10-05T09:50:26.251Z,1080
2022-10-05T09:55:08.567Z,1147
2022-10-05T09:59:49.899Z,1046
2022-10-05T10:04:31.087Z,1057
2022-10-05T10:09:12.433Z,1046
2022-10-05T10:13:54.728Z,1147
2022-10-05T10:18:36.021Z,1243
2022-10-05T10:23:18.423Z,1265
2022-10-05T10:28:00.542Z,1215
2022-10-05T10:32:42.962Z,1293
2022-10-05T10:37:25.222Z,1321
2022-10-05T10:42:07.500Z,1338
2022-10-05T10:51:32.005Z,1445
2022-10-05T10:56:14.216Z,1355
2022-10-05T11:00:56.558Z,1378
2022-10-05T11:05:38.880Z,1186
2022-10-05T11:10:21.086Z,1141
2022-10-05T11:15:03.316Z,1029
2022-10-05T11:19:44.654Z,1074
2022-10-05T11:24:26.958Z,1153
2022-10-05T11:29:09.325Z,1035
2022-10-05T11:33:51.476Z,1063
2022-10-05T11:38:33.786Z,1035
2022-10-05T11:43:16.125Z,1158
2022-10-05T11:47:58.410Z,1220
2022-10-05T11:52:39.688Z,1203
2022-10-05T11:57:21.930Z,1344
2022-10-05T12:02:03.270Z,1524
2022-10-05T12:06:44.687Z,1496
2022-10-05T12:11:25.979Z,1344
2022-10-05T12:16:08.074Z,1158
2022-10-05T12:20:50.382Z,1040
2022-10-05T12:25:32.734Z,950
2022-10-05T12:30:14.911Z,1001
2022-10-05T12:34:57.222Z,1040
2022-10-05T12:39:39.571Z,1035
2022-10-05T12:44:21.768Z,1125
2022-10-05T12:49:04.076Z,1125
2022-10-05T12:53:46.371Z,1080
2022-10-05T12:58:28.594Z,1063
2022-10-05T13:03:10.991Z,1001
2022-10-05T13:07:53.211Z,922
2022-10-05T13:12:34.522Z,866
2022-10-05T13:17:16.766Z,855
2022-10-05T13:21:59.043Z,849
2022-10-05T13:26:41.358Z,821
2022-10-05T13:31:23.568Z,770
2022-10-05T13:36:04.983Z,725
2022-10-05T13:40:47.224Z,703
2022-10-05T13:45:28.503Z,680
2022-10-05T13:50:09.893Z,652
2022-10-05T13:54:52.026Z,641
2022-10-05T13:59:34.339Z,624
2022-10-05T14:04:16.649Z,618
2022-10-05T14:08:58.882Z,596
2022-10-05T14:13:41.192Z,568
2022-10-05T14:18:23.485Z,562
2022-10-05T14:23:05.703Z,551
2022-10-05T14:27:48.103Z,523
2022-10-05T14:32:30.324Z,461
2022-10-05T14:37:12.535Z,421
2022-10-05T14:41:54.849Z,399
2022-10-05T14:46:37.164Z,376
2022-10-05T14:51:18.476Z,348
2022-10-05T14:56:00.698Z,331
2022-10-05T15:00:42.994Z,309
2022-10-05T15:05:25.326Z,292
2022-10-05T15:10:07.544Z,275
2022-10-05T15:14:49.829Z,264
2022-10-05T15:19:32.155Z,247
2022-10-05T15:24:13.459Z,230
2022-10-05T15:28:54.707Z,213
2022-10-05T15:33:35.979Z,196
2022-10-05T15:38:17.316Z,174
2022-10-05T15:42:59.601Z,157
2022-10-05T15:47:41.908Z,146
2022-10-05T15:52:24.125Z,135
2022-10-05T15:57:06.437Z,118
2022-10-05T16:01:48.749Z,112
2022-10-05T16:06:30.966Z,95
2022-10-05T16:11:13.273Z,90
2022-10-05T16:15:55.640Z,78
2022-10-05T16:20:37.826Z,61
2022-10-05T16:25:20.114Z,50
2022-10-05T16:30:02.421Z,33
2022-10-05T16:34:44.642Z,22
2022-10-05T16:39:25.978Z,16
2022-10-05T16:44:08.255Z,11
2022-10-05T16:48:50.475Z,11
2022-10-05T16:53:32.791Z,5
2022-10-05T16:58:15.117Z,5
2022-10-05T17:02:57.303Z,0
2022-10-05T17:07:39.613Z,0
2022-10-05T17:12:20.933Z,0
2022-10-05T17:17:02.242Z,0
2022-10-05T17:21:44.666Z,0
2022-10-05T17:26:26.805Z,0
2022-10-05T17:31:09.075Z,0
2022-10-05T17:35:51.385Z,0
2022-10-05T17:40:33.599Z,0
2022-10-05T17:45:15.907Z,0
2022-10-05T17:49:58.227Z,0
2022-10-05T17:54:40.437Z,0
2022-10-05T17:59:22.742Z,0
2022-10-05T18:04:05.052Z,0
2022-10-05T18:08:47.268Z,0
2022-10-05T18:13:29.580Z,0
2022-10-05T18:18:10.888Z,0
2022-10-05T18:22:53.104Z,0
2022-10-05T18:27:35.592Z,0
2022-10-05T18:32:17.720Z,0
2022-10-05T18:37:00.047Z,0
2022-10-05T18:41:42.246Z,0
2022-10-05T18:46:24.564Z,0
2022-10-05T18:51:05.903Z,0
2022-10-05T18:55:47.177Z,0
2022-10-05T19:00:28.491Z,0
2022-10-05T19:05:09.797Z,0
2022-10-05T19:09:51.110Z,0
2022-10-05T19:14:32.317Z,0
2022-10-05T19:19:14.632Z,0
2022-10-05T19:23:56.945Z,0
2022-10-05T19:28:39.156Z,0
2022-10-05T19:33:21.463Z,0
2022-10-05T19:38:03.779Z,0
2022-10-05T19:42:45.989Z,0
2022-10-05T19:47:28.300Z,0
2022-10-05T19:52:10.640Z,0
2022-10-05T19:56:52.931Z,0
2022-10-05T20:01:35.171Z,0
2022-10-05T20:06:17.452Z,0
2022-10-05T20:10:59.757Z,0
2022-10-05T20:15:40.970Z,0
2022-10-05T20:20:23.277Z,0
2022-10-05T20:25:05.595Z,0
2022-10-05T20:29:47.817Z,0
2022-10-05T20:34:30.154Z,0
2022-10-05T20:39:12.430Z,0
2022-10-05T20:43:54.637Z,0
2022-10-05T20:48:35.946Z,0
2022-10-05T20:53:17.262Z,0
2022-10-05T20:57:58.572Z,0
2022-10-05T21:02:39.901Z,0
2022-10-05T21:07:22.278Z,0
2022-10-05T21:12:04.531Z,0
2022-10-05T21:16:46.719Z,0
2022-10-05T21:21:29.028Z,0
2022-10-05T21:30:53.548Z,0
2022-10-05T21:35:35.980Z,0
2022-10-05T21:40:18.171Z,0
2022-10-05T21:45:00.383Z,0
2022-10-05T21:49:42.713Z,0
2022-10-05T21:54:25.007Z,0
2022-10-05T21:59:07.269Z,0
2022-10-05T22:03:48.526Z,0
2022-10-05T22:08:30.857Z,0
2022-10-05T22:13:13.198Z,0
2022-10-05T22:17:55.370Z,0
2022-10-05T22:22:37.677Z,0
2022-10-05T22:27:20.029Z,0
2022-10-05T22:32:02.201Z,0
2022-10-05T22:36:44.512Z,0
2022-10-05T22:41:25.867Z,0
2022-10-05T22:46:07.158Z,0
2022-10-05T22:50:48.465Z,0
2022-10-05T22:55:29.752Z,0
2022-10-05T23:00:11.966Z,0
2022-10-05T23:04:54.277Z,0
2022-10-05T23:09:36.585Z,0
2022-10-05T23:14:18.798Z,0
2022-10-05T23:19:01.110Z,0
2022-10-05T23:23:43.422Z,0
2022-10-05T23:28:25.632Z,0
2022-10-05T23:33:07.944Z,0
2022-10-05T23:37:50.284Z,0
2022-10-05T23:42:32.579Z,0
2022-10-05T23:47:14.784Z,0
2022-10-05T23:51:57.102Z,0
2022-10-05T23:56:38.411Z,0
